Cordell, Oklahoma
Current Conditions -  °F | °C
As of 3:53 PM on Saturday 25 Oct 2014 (Local Time) from KCSM Reporting Station
Clear Clear  
Wind Chill: 91°   Ceiling: Unl
Heat Index: 91°   Visibility: 10mi
Dew Point: 50°   Wind: 15mph
Humidity: 24%   Direction: 190°S
Pressure: 30.06"   Gusts: NA
Location:  35.29°N, 98.99°W
Report Text: KCSM 252053Z AUTO 19013KT 10SM CLR 33/10 A3006 RMK AO2 SLP157 T03280100 56019
Loading
Personal Weather Stations






























Interactive Weather Map
Tropical Storm Tracking
New forecast layout! Learn more

10-Day Weather Forecast

Advertisements
Track Severe Weather on mobile